<?xml version="1.0" encoding="UTF-8" standalone="no" ?>
<gpx xmlns="http://www.topografix.com/GPX/1/1" xmlns:xsi="http://www.w3.org/2001/XMLSchema-instance" xsi:schemaLocation="http://www.topografix.com/GPX/1/1 http://www.topografix.com/GPX/1/1/gpx.xsd" version="1.1" creator="VisuGPX - https://www.visugpx.com">
  <metadata>
    <name>Nez de Boeuf 15km 2025</name>
    <desc><![CDATA[Rando VTT Maisse Nez de Boeuf 15 km 2025]]></desc>
  </metadata>
  <trk>
    <name><![CDATA[NDB15km 2024]]></name>
    <trkseg>
      <trkpt lat="48.38273" lon="2.37852">
        <ele>61.55</ele>
        <time>2024-04-15T15:52:59.000Z</time>
      </trkpt>
      <trkpt lat="48.38341" lon="2.37866">
        <ele>63.9</ele>
        <time>2024-04-15T15:52:59.014Z</time>
      </trkpt>
      <trkpt lat="48.38436" lon="2.37879">
        <ele>64.62</ele>
        <time>2024-04-15T15:52:59.047Z</time>
      </trkpt>
      <trkpt lat="48.3848" lon="2.3788">
        <ele>64.71</ele>
        <time>2024-04-15T15:52:59.089Z</time>
      </trkpt>
      <trkpt lat="48.38507" lon="2.37879">
        <ele>64.79</ele>
        <time>2024-04-15T15:52:59.136Z</time>
      </trkpt>
      <trkpt lat="48.38517" lon="2.37877">
        <ele>64.83</ele>
        <time>2024-04-15T15:52:59.185Z</time>
      </trkpt>
      <trkpt lat="48.38517" lon="2.37877">
        <ele>64.85</ele>
        <time>2024-04-15T15:52:59.234Z</time>
      </trkpt>
      <trkpt lat="48.38536" lon="2.37875">
        <ele>64.93</ele>
        <time>2024-04-15T15:52:59.287Z</time>
      </trkpt>
      <trkpt lat="48.38563" lon="2.37879">
        <ele>65.05</ele>
        <time>2024-04-15T15:52:59.345Z</time>
      </trkpt>
      <trkpt lat="48.38611" lon="2.37884">
        <ele>65.12</ele>
        <time>2024-04-15T15:52:59.413Z</time>
      </trkpt>
      <trkpt lat="48.38775" lon="2.37854">
        <ele>65.33</ele>
        <time>2024-04-15T15:52:59.514Z</time>
      </trkpt>
      <trkpt lat="48.38791" lon="2.37853">
        <ele>65.31</ele>
        <time>2024-04-15T15:52:59.618Z</time>
      </trkpt>
      <trkpt lat="48.38819" lon="2.37856">
        <ele>65.22</ele>
        <time>2024-04-15T15:52:59.728Z</time>
      </trkpt>
      <trkpt lat="48.38851" lon="2.37868">
        <ele>65.13</ele>
        <time>2024-04-15T15:52:59.844Z</time>
      </trkpt>
      <trkpt lat="48.38861" lon="2.37875">
        <ele>65.1</ele>
        <time>2024-04-15T15:52:59.963Z</time>
      </trkpt>
      <trkpt lat="48.38889" lon="2.37912">
        <ele>65.19</ele>
        <time>2024-04-15T15:53:00.089Z</time>
      </trkpt>
      <trkpt lat="48.38909" lon="2.37934">
        <ele>65.2</ele>
        <time>2024-04-15T15:53:00.220Z</time>
      </trkpt>
      <trkpt lat="48.38922" lon="2.37947">
        <ele>65.21</ele>
        <time>2024-04-15T15:53:00.354Z</time>
      </trkpt>
      <trkpt lat="48.38933" lon="2.37956">
        <ele>65.24</ele>
        <time>2024-04-15T15:53:00.491Z</time>
      </trkpt>
      <trkpt lat="48.38963" lon="2.37965">
        <ele>65.28</ele>
        <time>2024-04-15T15:53:00.634Z</time>
      </trkpt>
      <trkpt lat="48.38975" lon="2.37965">
        <ele>65.48</ele>
        <time>2024-04-15T15:53:00.779Z</time>
      </trkpt>
      <trkpt lat="48.39" lon="2.37957">
        <ele>65.8</ele>
        <time>2024-04-15T15:53:00.929Z</time>
      </trkpt>
      <trkpt lat="48.39092" lon="2.37884">
        <ele>65.68</ele>
        <time>2024-04-15T15:53:01.100Z</time>
      </trkpt>
      <trkpt lat="48.39102" lon="2.37873">
        <ele>65.65</ele>
        <time>2024-04-15T15:53:01.274Z</time>
      </trkpt>
      <trkpt lat="48.39115" lon="2.37848">
        <ele>65.59</ele>
        <time>2024-04-15T15:53:01.452Z</time>
      </trkpt>
      <trkpt lat="48.39222" lon="2.37852">
        <ele>65.26</ele>
        <time>2024-04-15T15:53:01.651Z</time>
      </trkpt>
      <trkpt lat="48.39308" lon="2.37853">
        <ele>65.42</ele>
        <time>2024-04-15T15:53:01.868Z</time>
      </trkpt>
      <trkpt lat="48.39319" lon="2.3785">
        <ele>65.52</ele>
        <time>2024-04-15T15:53:02.087Z</time>
      </trkpt>
      <trkpt lat="48.39327" lon="2.37843">
        <ele>65.74</ele>
        <time>2024-04-15T15:53:02.308Z</time>
      </trkpt>
      <trkpt lat="48.39323" lon="2.37825">
        <ele>66.03</ele>
        <time>2024-04-15T15:53:02.531Z</time>
      </trkpt>
      <trkpt lat="48.3932" lon="2.37804">
        <ele>66.33</ele>
        <time>2024-04-15T15:53:02.757Z</time>
      </trkpt>
      <trkpt lat="48.39318" lon="2.3777">
        <ele>66.84</ele>
        <time>2024-04-15T15:53:02.988Z</time>
      </trkpt>
      <trkpt lat="48.39318" lon="2.3774">
        <ele>67.26</ele>
        <time>2024-04-15T15:53:03.223Z</time>
      </trkpt>
      <trkpt lat="48.39332" lon="2.37751">
        <ele>67.35</ele>
        <time>2024-04-15T15:53:03.461Z</time>
      </trkpt>
      <trkpt lat="48.39351" lon="2.37765">
        <ele>67.99</ele>
        <time>2024-04-15T15:53:03.703Z</time>
      </trkpt>
      <trkpt lat="48.39405" lon="2.37795">
        <ele>67.76</ele>
        <time>2024-04-15T15:53:03.957Z</time>
      </trkpt>
      <trkpt lat="48.3941" lon="2.37796">
        <ele>67.66</ele>
        <time>2024-04-15T15:53:04.212Z</time>
      </trkpt>
      <trkpt lat="48.3941" lon="2.37808">
        <ele>67.49</ele>
        <time>2024-04-15T15:53:04.468Z</time>
      </trkpt>
      <trkpt lat="48.39452" lon="2.37807">
        <ele>67.46</ele>
        <time>2024-04-15T15:53:04.733Z</time>
      </trkpt>
      <trkpt lat="48.39461" lon="2.37808">
        <ele>67.33</ele>
        <time>2024-04-15T15:53:05.000Z</time>
      </trkpt>
      <trkpt lat="48.3948" lon="2.37818">
        <ele>67.09</ele>
        <time>2024-04-15T15:53:05.270Z</time>
      </trkpt>
      <trkpt lat="48.39508" lon="2.37845">
        <ele>66.43</ele>
        <time>2024-04-15T15:53:05.547Z</time>
      </trkpt>
      <trkpt lat="48.39561" lon="2.37906">
        <ele>64.8</ele>
        <time>2024-04-15T15:53:05.838Z</time>
      </trkpt>
      <trkpt lat="48.39584" lon="2.37924">
        <ele>64.19</ele>
        <time>2024-04-15T15:53:06.134Z</time>
      </trkpt>
      <trkpt lat="48.39649" lon="2.37978">
        <ele>63.7</ele>
        <time>2024-04-15T15:53:06.445Z</time>
      </trkpt>
      <trkpt lat="48.39649" lon="2.37978">
        <ele>63.93</ele>
        <time>2024-04-15T15:53:06.756Z</time>
      </trkpt>
      <trkpt lat="48.3969" lon="2.38013">
        <ele>64.13</ele>
        <time>2024-04-15T15:53:07.076Z</time>
      </trkpt>
      <trkpt lat="48.39717" lon="2.38032">
        <ele>64.36</ele>
        <time>2024-04-15T15:53:07.402Z</time>
      </trkpt>
      <trkpt lat="48.39745" lon="2.38059">
        <ele>64.92</ele>
        <time>2024-04-15T15:53:07.735Z</time>
      </trkpt>
      <trkpt lat="48.39783" lon="2.38102">
        <ele>65.51</ele>
        <time>2024-04-15T15:53:08.077Z</time>
      </trkpt>
      <trkpt lat="48.398" lon="2.38114">
        <ele>65.68</ele>
        <time>2024-04-15T15:53:08.423Z</time>
      </trkpt>
      <trkpt lat="48.39821" lon="2.38114">
        <ele>65.73</ele>
        <time>2024-04-15T15:53:08.773Z</time>
      </trkpt>
      <trkpt lat="48.39849" lon="2.3811">
        <ele>65.57</ele>
        <time>2024-04-15T15:53:09.129Z</time>
      </trkpt>
      <trkpt lat="48.3991" lon="2.38088">
        <ele>65.39</ele>
        <time>2024-04-15T15:53:09.497Z</time>
      </trkpt>
      <trkpt lat="48.39938" lon="2.38086">
        <ele>64.79</ele>
        <time>2024-04-15T15:53:09.871Z</time>
      </trkpt>
      <trkpt lat="48.39964" lon="2.38091">
        <ele>64.27</ele>
        <time>2024-04-15T15:53:10.250Z</time>
      </trkpt>
      <trkpt lat="48.40027" lon="2.38102">
        <ele>64.01</ele>
        <time>2024-04-15T15:53:10.642Z</time>
      </trkpt>
      <trkpt lat="48.40075" lon="2.38109">
        <ele>63.64</ele>
        <time>2024-04-15T15:53:11.044Z</time>
      </trkpt>
      <trkpt lat="48.4015" lon="2.38127">
        <ele>63.74</ele>
        <time>2024-04-15T15:53:11.461Z</time>
      </trkpt>
      <trkpt lat="48.40197" lon="2.38137">
        <ele>63.5</ele>
        <time>2024-04-15T15:53:11.887Z</time>
      </trkpt>
      <trkpt lat="48.40234" lon="2.38144">
        <ele>63.49</ele>
        <time>2024-04-15T15:53:12.321Z</time>
      </trkpt>
      <trkpt lat="48.40245" lon="2.38143">
        <ele>63.41</ele>
        <time>2024-04-15T15:53:12.757Z</time>
      </trkpt>
      <trkpt lat="48.40253" lon="2.38142">
        <ele>63.34</ele>
        <time>2024-04-15T15:53:13.195Z</time>
      </trkpt>
      <trkpt lat="48.40281" lon="2.3813">
        <ele>63.19</ele>
        <time>2024-04-15T15:53:13.638Z</time>
      </trkpt>
      <trkpt lat="48.40311" lon="2.3812">
        <ele>63.11</ele>
        <time>2024-04-15T15:53:14.087Z</time>
      </trkpt>
      <trkpt lat="48.40338" lon="2.38122">
        <ele>63.11</ele>
        <time>2024-04-15T15:53:14.542Z</time>
      </trkpt>
      <trkpt lat="48.40343" lon="2.38121">
        <ele>62.95</ele>
        <time>2024-04-15T15:53:14.998Z</time>
      </trkpt>
      <trkpt lat="48.40371" lon="2.38119">
        <ele>62.56</ele>
        <time>2024-04-15T15:53:15.460Z</time>
      </trkpt>
      <trkpt lat="48.40415" lon="2.38127">
        <ele>62.29</ele>
        <time>2024-04-15T15:53:15.930Z</time>
      </trkpt>
      <trkpt lat="48.40432" lon="2.38131">
        <ele>61.99</ele>
        <time>2024-04-15T15:53:16.404Z</time>
      </trkpt>
      <trkpt lat="48.40471" lon="2.38139">
        <ele>62.17</ele>
        <time>2024-04-15T15:53:16.886Z</time>
      </trkpt>
      <trkpt lat="48.40501" lon="2.38153">
        <ele>62.45</ele>
        <time>2024-04-15T15:53:17.374Z</time>
      </trkpt>
      <trkpt lat="48.40499" lon="2.38199">
        <ele>62.6</ele>
        <time>2024-04-15T15:53:17.868Z</time>
      </trkpt>
      <trkpt lat="48.40486" lon="2.38255">
        <ele>62.08</ele>
        <time>2024-04-15T15:53:18.370Z</time>
      </trkpt>
      <trkpt lat="48.40486" lon="2.38264">
        <ele>61.77</ele>
        <time>2024-04-15T15:53:18.873Z</time>
      </trkpt>
      <trkpt lat="48.4049" lon="2.3827">
        <ele>61.58</ele>
        <time>2024-04-15T15:53:19.377Z</time>
      </trkpt>
      <trkpt lat="48.405" lon="2.38277">
        <ele>61.49</ele>
        <time>2024-04-15T15:53:19.883Z</time>
      </trkpt>
      <trkpt lat="48.40525" lon="2.38286">
        <ele>61.56</ele>
        <time>2024-04-15T15:53:20.395Z</time>
      </trkpt>
      <trkpt lat="48.40582" lon="2.38289">
        <ele>62</ele>
        <time>2024-04-15T15:53:20.918Z</time>
      </trkpt>
      <trkpt lat="48.40644" lon="2.38289">
        <ele>62.08</ele>
        <time>2024-04-15T15:53:21.454Z</time>
      </trkpt>
      <trkpt lat="48.40651" lon="2.3829">
        <ele>62.91</ele>
        <time>2024-04-15T15:53:21.991Z</time>
      </trkpt>
      <trkpt lat="48.40643" lon="2.38217">
        <ele>63.64</ele>
        <time>2024-04-15T15:53:22.538Z</time>
      </trkpt>
      <trkpt lat="48.40732" lon="2.38208">
        <ele>63.87</ele>
        <time>2024-04-15T15:53:23.103Z</time>
      </trkpt>
      <trkpt lat="48.40755" lon="2.38215">
        <ele>64.08</ele>
        <time>2024-04-15T15:53:23.672Z</time>
      </trkpt>
      <trkpt lat="48.40836" lon="2.38238">
        <ele>62.45</ele>
        <time>2024-04-15T15:53:24.258Z</time>
      </trkpt>
      <trkpt lat="48.40892" lon="2.38236">
        <ele>62.17</ele>
        <time>2024-04-15T15:53:24.855Z</time>
      </trkpt>
      <trkpt lat="48.4093" lon="2.38227">
        <ele>62.14</ele>
        <time>2024-04-15T15:53:25.460Z</time>
      </trkpt>
      <trkpt lat="48.40965" lon="2.38219">
        <ele>62.19</ele>
        <time>2024-04-15T15:53:26.072Z</time>
      </trkpt>
      <trkpt lat="48.41005" lon="2.38195">
        <ele>62.37</ele>
        <time>2024-04-15T15:53:26.693Z</time>
      </trkpt>
      <trkpt lat="48.41087" lon="2.38127">
        <ele>62.88</ele>
        <time>2024-04-15T15:53:27.332Z</time>
      </trkpt>
      <trkpt lat="48.41118" lon="2.38117">
        <ele>63.19</ele>
        <time>2024-04-15T15:53:27.978Z</time>
      </trkpt>
      <trkpt lat="48.41128" lon="2.38118">
        <ele>63.37</ele>
        <time>2024-04-15T15:53:28.626Z</time>
      </trkpt>
      <trkpt lat="48.41128" lon="2.38118">
        <ele>63.53</ele>
        <time>2024-04-15T15:53:29.274Z</time>
      </trkpt>
      <trkpt lat="48.41141" lon="2.38119">
        <ele>63.68</ele>
        <time>2024-04-15T15:53:29.924Z</time>
      </trkpt>
      <trkpt lat="48.41149" lon="2.3812">
        <ele>62.64</ele>
        <time>2024-04-15T15:53:30.576Z</time>
      </trkpt>
      <trkpt lat="48.4122" lon="2.38482">
        <ele>58.79</ele>
        <time>2024-04-15T15:53:31.278Z</time>
      </trkpt>
      <trkpt lat="48.41277" lon="2.38455">
        <ele>59.4</ele>
        <time>2024-04-15T15:53:31.992Z</time>
      </trkpt>
      <trkpt lat="48.41514" lon="2.38346">
        <ele>58.77</ele>
        <time>2024-04-15T15:53:32.756Z</time>
      </trkpt>
      <trkpt lat="48.41764" lon="2.38227">
        <ele>59.45</ele>
        <time>2024-04-15T15:53:33.572Z</time>
      </trkpt>
      <trkpt lat="48.41822" lon="2.38209">
        <ele>59.07</ele>
        <time>2024-04-15T15:53:34.400Z</time>
      </trkpt>
      <trkpt lat="48.41829" lon="2.38211">
        <ele>59.2</ele>
        <time>2024-04-15T15:53:35.229Z</time>
      </trkpt>
      <trkpt lat="48.41873" lon="2.38287">
        <ele>59.99</ele>
        <time>2024-04-15T15:53:36.072Z</time>
      </trkpt>
      <trkpt lat="48.41885" lon="2.38307">
        <ele>60.36</ele>
        <time>2024-04-15T15:53:36.918Z</time>
      </trkpt>
      <trkpt lat="48.41904" lon="2.3831">
        <ele>60.42</ele>
        <time>2024-04-15T15:53:37.768Z</time>
      </trkpt>
      <trkpt lat="48.41925" lon="2.38306">
        <ele>60.59</ele>
        <time>2024-04-15T15:53:38.622Z</time>
      </trkpt>
      <trkpt lat="48.41938" lon="2.38299">
        <ele>60.83</ele>
        <time>2024-04-15T15:53:39.479Z</time>
      </trkpt>
      <trkpt lat="48.41943" lon="2.3831">
        <ele>60.99</ele>
        <time>2024-04-15T15:53:40.338Z</time>
      </trkpt>
      <trkpt lat="48.4194" lon="2.38321">
        <ele>61.08</ele>
        <time>2024-04-15T15:53:41.199Z</time>
      </trkpt>
      <trkpt lat="48.41945" lon="2.3833">
        <ele>61.24</ele>
        <time>2024-04-15T15:53:42.061Z</time>
      </trkpt>
      <trkpt lat="48.41949" lon="2.38344">
        <ele>61.41</ele>
        <time>2024-04-15T15:53:42.925Z</time>
      </trkpt>
      <trkpt lat="48.41948" lon="2.3835">
        <ele>61.42</ele>
        <time>2024-04-15T15:53:43.790Z</time>
      </trkpt>
      <trkpt lat="48.41943" lon="2.38365">
        <ele>62.08</ele>
        <time>2024-04-15T15:53:44.657Z</time>
      </trkpt>
      <trkpt lat="48.41943" lon="2.3837">
        <ele>62.26</ele>
        <time>2024-04-15T15:53:45.525Z</time>
      </trkpt>
      <trkpt lat="48.41944" lon="2.38378">
        <ele>62.46</ele>
        <time>2024-04-15T15:53:46.394Z</time>
      </trkpt>
      <trkpt lat="48.41946" lon="2.38394">
        <ele>62.69</ele>
        <time>2024-04-15T15:53:47.265Z</time>
      </trkpt>
      <trkpt lat="48.41956" lon="2.38392">
        <ele>62.84</ele>
        <time>2024-04-15T15:53:48.138Z</time>
      </trkpt>
      <trkpt lat="48.41973" lon="2.38413">
        <ele>63.01</ele>
        <time>2024-04-15T15:53:49.016Z</time>
      </trkpt>
      <trkpt lat="48.42013" lon="2.38472">
        <ele>62.51</ele>
        <time>2024-04-15T15:53:49.905Z</time>
      </trkpt>
      <trkpt lat="48.42026" lon="2.38485">
        <ele>62.11</ele>
        <time>2024-04-15T15:53:50.797Z</time>
      </trkpt>
      <trkpt lat="48.42058" lon="2.38543">
        <ele>61.25</ele>
        <time>2024-04-15T15:53:51.699Z</time>
      </trkpt>
      <trkpt lat="48.42063" lon="2.38566">
        <ele>60.62</ele>
        <time>2024-04-15T15:53:52.604Z</time>
      </trkpt>
      <trkpt lat="48.42077" lon="2.38609">
        <ele>59.98</ele>
        <time>2024-04-15T15:53:53.516Z</time>
      </trkpt>
      <trkpt lat="48.421" lon="2.38659">
        <ele>59.86</ele>
        <time>2024-04-15T15:53:54.436Z</time>
      </trkpt>
      <trkpt lat="48.42099" lon="2.38668">
        <ele>59.62</ele>
        <time>2024-04-15T15:53:55.357Z</time>
      </trkpt>
      <trkpt lat="48.42055" lon="2.38694">
        <ele>59.2</ele>
        <time>2024-04-15T15:53:56.287Z</time>
      </trkpt>
      <trkpt lat="48.42051" lon="2.38696">
        <ele>58.94</ele>
        <time>2024-04-15T15:53:57.218Z</time>
      </trkpt>
      <trkpt lat="48.42051" lon="2.38696">
        <ele>58.72</ele>
        <time>2024-04-15T15:53:58.149Z</time>
      </trkpt>
      <trkpt lat="48.42031" lon="2.38708">
        <ele>58.41</ele>
        <time>2024-04-15T15:53:59.084Z</time>
      </trkpt>
      <trkpt lat="48.41908" lon="2.38781">
        <ele>59.58</ele>
        <time>2024-04-15T15:54:00.046Z</time>
      </trkpt>
      <trkpt lat="48.41857" lon="2.38802">
        <ele>59.58</ele>
        <time>2024-04-15T15:54:01.018Z</time>
      </trkpt>
      <trkpt lat="48.41846" lon="2.38804">
        <ele>59.43</ele>
        <time>2024-04-15T15:54:01.993Z</time>
      </trkpt>
      <trkpt lat="48.41836" lon="2.38808">
        <ele>59.24</ele>
        <time>2024-04-15T15:54:02.970Z</time>
      </trkpt>
      <trkpt lat="48.41823" lon="2.38822">
        <ele>59.14</ele>
        <time>2024-04-15T15:54:03.950Z</time>
      </trkpt>
      <trkpt lat="48.41823" lon="2.38822">
        <ele>59.14</ele>
        <time>2024-04-15T15:54:04.930Z</time>
      </trkpt>
      <trkpt lat="48.41804" lon="2.38854">
        <ele>59.05</ele>
        <time>2024-04-15T15:54:05.916Z</time>
      </trkpt>
      <trkpt lat="48.41795" lon="2.38865">
        <ele>59.26</ele>
        <time>2024-04-15T15:54:06.904Z</time>
      </trkpt>
      <trkpt lat="48.41672" lon="2.38962">
        <ele>60.01</ele>
        <time>2024-04-15T15:54:07.920Z</time>
      </trkpt>
      <trkpt lat="48.41652" lon="2.38981">
        <ele>60.27</ele>
        <time>2024-04-15T15:54:08.940Z</time>
      </trkpt>
      <trkpt lat="48.41571" lon="2.39045">
        <ele>60.13</ele>
        <time>2024-04-15T15:54:09.979Z</time>
      </trkpt>
      <trkpt lat="48.4135" lon="2.39229">
        <ele>59.77</ele>
        <time>2024-04-15T15:54:11.069Z</time>
      </trkpt>
      <trkpt lat="48.41209" lon="2.3934">
        <ele>58.94</ele>
        <time>2024-04-15T15:54:12.190Z</time>
      </trkpt>
      <trkpt lat="48.41209" lon="2.3934">
        <ele>58.75</ele>
        <time>2024-04-15T15:54:13.311Z</time>
      </trkpt>
      <trkpt lat="48.4115" lon="2.39391">
        <ele>58.86</ele>
        <time>2024-04-15T15:54:14.446Z</time>
      </trkpt>
      <trkpt lat="48.41128" lon="2.39411">
        <ele>58.89</ele>
        <time>2024-04-15T15:54:15.586Z</time>
      </trkpt>
      <trkpt lat="48.41128" lon="2.39411">
        <ele>58.99</ele>
        <time>2024-04-15T15:54:16.726Z</time>
      </trkpt>
      <trkpt lat="48.41097" lon="2.39437">
        <ele>59.04</ele>
        <time>2024-04-15T15:54:17.873Z</time>
      </trkpt>
      <trkpt lat="48.41084" lon="2.39442">
        <ele>59.18</ele>
        <time>2024-04-15T15:54:19.023Z</time>
      </trkpt>
      <trkpt lat="48.41061" lon="2.39437">
        <ele>59.21</ele>
        <time>2024-04-15T15:54:20.177Z</time>
      </trkpt>
      <trkpt lat="48.41006" lon="2.39409">
        <ele>59.6</ele>
        <time>2024-04-15T15:54:21.343Z</time>
      </trkpt>
      <trkpt lat="48.40979" lon="2.39397">
        <ele>59.77</ele>
        <time>2024-04-15T15:54:22.515Z</time>
      </trkpt>
      <trkpt lat="48.40951" lon="2.39393">
        <ele>59.91</ele>
        <time>2024-04-15T15:54:23.692Z</time>
      </trkpt>
      <trkpt lat="48.40919" lon="2.39391">
        <ele>60.02</ele>
        <time>2024-04-15T15:54:24.876Z</time>
      </trkpt>
      <trkpt lat="48.40901" lon="2.39396">
        <ele>60.17</ele>
        <time>2024-04-15T15:54:26.063Z</time>
      </trkpt>
      <trkpt lat="48.40867" lon="2.39405">
        <ele>60.21</ele>
        <time>2024-04-15T15:54:27.257Z</time>
      </trkpt>
      <trkpt lat="48.40855" lon="2.39411">
        <ele>60.21</ele>
        <time>2024-04-15T15:54:28.454Z</time>
      </trkpt>
      <trkpt lat="48.40853" lon="2.39415">
        <ele>60.25</ele>
        <time>2024-04-15T15:54:29.652Z</time>
      </trkpt>
      <trkpt lat="48.40848" lon="2.39411">
        <ele>60.31</ele>
        <time>2024-04-15T15:54:30.851Z</time>
      </trkpt>
      <trkpt lat="48.4079" lon="2.39412">
        <ele>60.49</ele>
        <time>2024-04-15T15:54:32.061Z</time>
      </trkpt>
      <trkpt lat="48.40632" lon="2.39458">
        <ele>60.24</ele>
        <time>2024-04-15T15:54:33.304Z</time>
      </trkpt>
      <trkpt lat="48.40585" lon="2.39502">
        <ele>60.58</ele>
        <time>2024-04-15T15:54:34.558Z</time>
      </trkpt>
      <trkpt lat="48.40568" lon="2.39536">
        <ele>61.05</ele>
        <time>2024-04-15T15:54:35.817Z</time>
      </trkpt>
      <trkpt lat="48.40568" lon="2.39536">
        <ele>60.84</ele>
        <time>2024-04-15T15:54:37.076Z</time>
      </trkpt>
      <trkpt lat="48.40495" lon="2.39683">
        <ele>60.19</ele>
        <time>2024-04-15T15:54:38.360Z</time>
      </trkpt>
      <trkpt lat="48.40456" lon="2.39772">
        <ele>59.71</ele>
        <time>2024-04-15T15:54:39.658Z</time>
      </trkpt>
      <trkpt lat="48.40427" lon="2.39859">
        <ele>59.7</ele>
        <time>2024-04-15T15:54:40.969Z</time>
      </trkpt>
      <trkpt lat="48.40388" lon="2.39929">
        <ele>59.78</ele>
        <time>2024-04-15T15:54:42.292Z</time>
      </trkpt>
      <trkpt lat="48.40366" lon="2.3995">
        <ele>59.79</ele>
        <time>2024-04-15T15:54:43.620Z</time>
      </trkpt>
      <trkpt lat="48.40317" lon="2.39958">
        <ele>59.86</ele>
        <time>2024-04-15T15:54:44.958Z</time>
      </trkpt>
      <trkpt lat="48.40237" lon="2.39958">
        <ele>59.57</ele>
        <time>2024-04-15T15:54:46.312Z</time>
      </trkpt>
      <trkpt lat="48.40176" lon="2.39951">
        <ele>59.49</ele>
        <time>2024-04-15T15:54:47.678Z</time>
      </trkpt>
      <trkpt lat="48.40114" lon="2.39931">
        <ele>59.45</ele>
        <time>2024-04-15T15:54:49.057Z</time>
      </trkpt>
      <trkpt lat="48.40043" lon="2.39895">
        <ele>59.36</ele>
        <time>2024-04-15T15:54:50.451Z</time>
      </trkpt>
      <trkpt lat="48.40031" lon="2.39888">
        <ele>59.13</ele>
        <time>2024-04-15T15:54:51.848Z</time>
      </trkpt>
      <trkpt lat="48.40031" lon="2.39888">
        <ele>59.27</ele>
        <time>2024-04-15T15:54:53.245Z</time>
      </trkpt>
      <trkpt lat="48.40015" lon="2.39881">
        <ele>59.57</ele>
        <time>2024-04-15T15:54:54.645Z</time>
      </trkpt>
      <trkpt lat="48.40001" lon="2.39869">
        <ele>60</ele>
        <time>2024-04-15T15:54:56.048Z</time>
      </trkpt>
      <trkpt lat="48.40001" lon="2.39869">
        <ele>60.37</ele>
        <time>2024-04-15T15:54:57.451Z</time>
      </trkpt>
      <trkpt lat="48.39765" lon="2.39673">
        <ele>61.25</ele>
        <time>2024-04-15T15:54:58.908Z</time>
      </trkpt>
      <trkpt lat="48.3969" lon="2.39601">
        <ele>61.21</ele>
        <time>2024-04-15T15:55:00.383Z</time>
      </trkpt>
      <trkpt lat="48.39602" lon="2.39521">
        <ele>61.7</ele>
        <time>2024-04-15T15:55:01.879Z</time>
      </trkpt>
      <trkpt lat="48.39594" lon="2.39507">
        <ele>61.75</ele>
        <time>2024-04-15T15:55:03.377Z</time>
      </trkpt>
      <trkpt lat="48.39643" lon="2.39281">
        <ele>61.38</ele>
        <time>2024-04-15T15:55:04.907Z</time>
      </trkpt>
      <trkpt lat="48.39643" lon="2.39281">
        <ele>61.46</ele>
        <time>2024-04-15T15:55:06.437Z</time>
      </trkpt>
      <trkpt lat="48.39649" lon="2.39254">
        <ele>61.74</ele>
        <time>2024-04-15T15:55:07.971Z</time>
      </trkpt>
      <trkpt lat="48.39516" lon="2.39206">
        <ele>61.68</ele>
        <time>2024-04-15T15:55:09.532Z</time>
      </trkpt>
      <trkpt lat="48.39341" lon="2.39129">
        <ele>62.73</ele>
        <time>2024-04-15T15:55:11.129Z</time>
      </trkpt>
      <trkpt lat="48.39298" lon="2.39109">
        <ele>63.17</ele>
        <time>2024-04-15T15:55:12.735Z</time>
      </trkpt>
      <trkpt lat="48.39291" lon="2.39106">
        <ele>63.36</ele>
        <time>2024-04-15T15:55:14.343Z</time>
      </trkpt>
      <trkpt lat="48.39267" lon="2.39094">
        <ele>63.28</ele>
        <time>2024-04-15T15:55:15.956Z</time>
      </trkpt>
      <trkpt lat="48.39264" lon="2.39092">
        <ele>63.17</ele>
        <time>2024-04-15T15:55:17.570Z</time>
      </trkpt>
      <trkpt lat="48.39258" lon="2.39087">
        <ele>62.97</ele>
        <time>2024-04-15T15:55:19.185Z</time>
      </trkpt>
      <trkpt lat="48.39245" lon="2.39146">
        <ele>62.82</ele>
        <time>2024-04-15T15:55:20.808Z</time>
      </trkpt>
      <trkpt lat="48.39244" lon="2.39166">
        <ele>62.56</ele>
        <time>2024-04-15T15:55:22.434Z</time>
      </trkpt>
      <trkpt lat="48.39244" lon="2.39183">
        <ele>62.42</ele>
        <time>2024-04-15T15:55:24.062Z</time>
      </trkpt>
      <trkpt lat="48.39244" lon="2.39229">
        <ele>62.3</ele>
        <time>2024-04-15T15:55:25.697Z</time>
      </trkpt>
      <trkpt lat="48.39245" lon="2.3924">
        <ele>62.19</ele>
        <time>2024-04-15T15:55:27.333Z</time>
      </trkpt>
      <trkpt lat="48.39245" lon="2.39246">
        <ele>62.12</ele>
        <time>2024-04-15T15:55:28.970Z</time>
      </trkpt>
      <trkpt lat="48.39245" lon="2.39262">
        <ele>62.33</ele>
        <time>2024-04-15T15:55:30.609Z</time>
      </trkpt>
      <trkpt lat="48.39248" lon="2.39285">
        <ele>62.71</ele>
        <time>2024-04-15T15:55:32.251Z</time>
      </trkpt>
      <trkpt lat="48.39249" lon="2.393">
        <ele>63.24</ele>
        <time>2024-04-15T15:55:33.895Z</time>
      </trkpt>
      <trkpt lat="48.39254" lon="2.3934">
        <ele>63.98</ele>
        <time>2024-04-15T15:55:35.544Z</time>
      </trkpt>
      <trkpt lat="48.3926" lon="2.39369">
        <ele>64.61</ele>
        <time>2024-04-15T15:55:37.197Z</time>
      </trkpt>
      <trkpt lat="48.39288" lon="2.39463">
        <ele>65.37</ele>
        <time>2024-04-15T15:55:38.864Z</time>
      </trkpt>
      <trkpt lat="48.39304" lon="2.39521">
        <ele>65.85</ele>
        <time>2024-04-15T15:55:40.540Z</time>
      </trkpt>
      <trkpt lat="48.39289" lon="2.39527">
        <ele>66.41</ele>
        <time>2024-04-15T15:55:42.219Z</time>
      </trkpt>
      <trkpt lat="48.39281" lon="2.39524">
        <ele>66.84</ele>
        <time>2024-04-15T15:55:43.899Z</time>
      </trkpt>
      <trkpt lat="48.39265" lon="2.39504">
        <ele>67.29</ele>
        <time>2024-04-15T15:55:45.583Z</time>
      </trkpt>
      <trkpt lat="48.39255" lon="2.39488">
        <ele>67.64</ele>
        <time>2024-04-15T15:55:47.270Z</time>
      </trkpt>
      <trkpt lat="48.39229" lon="2.39427">
        <ele>67.81</ele>
        <time>2024-04-15T15:55:48.967Z</time>
      </trkpt>
      <trkpt lat="48.39255" lon="2.39488">
        <ele>67.86</ele>
        <time>2024-04-15T15:55:50.674Z</time>
      </trkpt>
      <trkpt lat="48.39235" lon="2.39429">
        <ele>67.89</ele>
        <time>2024-04-15T15:55:52.390Z</time>
      </trkpt>
      <trkpt lat="48.39216" lon="2.3938">
        <ele>68.14</ele>
        <time>2024-04-15T15:55:54.113Z</time>
      </trkpt>
      <trkpt lat="48.39178" lon="2.39285">
        <ele>68.07</ele>
        <time>2024-04-15T15:55:55.851Z</time>
      </trkpt>
      <trkpt lat="48.3917" lon="2.39272">
        <ele>68.17</ele>
        <time>2024-04-15T15:55:57.591Z</time>
      </trkpt>
      <trkpt lat="48.39162" lon="2.39267">
        <ele>68.4</ele>
        <time>2024-04-15T15:55:59.333Z</time>
      </trkpt>
      <trkpt lat="48.39111" lon="2.39254">
        <ele>69.31</ele>
        <time>2024-04-15T15:56:01.085Z</time>
      </trkpt>
      <trkpt lat="48.39097" lon="2.39248">
        <ele>69.59</ele>
        <time>2024-04-15T15:56:02.840Z</time>
      </trkpt>
      <trkpt lat="48.39079" lon="2.39234">
        <ele>69.69</ele>
        <time>2024-04-15T15:56:04.599Z</time>
      </trkpt>
      <trkpt lat="48.39004" lon="2.39159">
        <ele>69.63</ele>
        <time>2024-04-15T15:56:06.376Z</time>
      </trkpt>
      <trkpt lat="48.38983" lon="2.39131">
        <ele>69.38</ele>
        <time>2024-04-15T15:56:08.159Z</time>
      </trkpt>
      <trkpt lat="48.38945" lon="2.39071">
        <ele>68.7</ele>
        <time>2024-04-15T15:56:09.953Z</time>
      </trkpt>
      <trkpt lat="48.38925" lon="2.39045">
        <ele>68.18</ele>
        <time>2024-04-15T15:56:11.752Z</time>
      </trkpt>
      <trkpt lat="48.38913" lon="2.39037">
        <ele>67.86</ele>
        <time>2024-04-15T15:56:13.554Z</time>
      </trkpt>
      <trkpt lat="48.38897" lon="2.39032">
        <ele>67.68</ele>
        <time>2024-04-15T15:56:15.359Z</time>
      </trkpt>
      <trkpt lat="48.38871" lon="2.39029">
        <ele>67.66</ele>
        <time>2024-04-15T15:56:17.169Z</time>
      </trkpt>
      <trkpt lat="48.38853" lon="2.39029">
        <ele>67.75</ele>
        <time>2024-04-15T15:56:18.983Z</time>
      </trkpt>
      <trkpt lat="48.38831" lon="2.39034">
        <ele>67.88</ele>
        <time>2024-04-15T15:56:20.802Z</time>
      </trkpt>
      <trkpt lat="48.38824" lon="2.3904">
        <ele>67.88</ele>
        <time>2024-04-15T15:56:22.622Z</time>
      </trkpt>
      <trkpt lat="48.38809" lon="2.39033">
        <ele>67.8</ele>
        <time>2024-04-15T15:56:24.445Z</time>
      </trkpt>
      <trkpt lat="48.38757" lon="2.39026">
        <ele>67.72</ele>
        <time>2024-04-15T15:56:26.279Z</time>
      </trkpt>
      <trkpt lat="48.38741" lon="2.39026">
        <ele>67.65</ele>
        <time>2024-04-15T15:56:28.116Z</time>
      </trkpt>
      <trkpt lat="48.3869" lon="2.39029">
        <ele>67.1</ele>
        <time>2024-04-15T15:56:29.963Z</time>
      </trkpt>
      <trkpt lat="48.38531" lon="2.39066">
        <ele>67.84</ele>
        <time>2024-04-15T15:56:31.842Z</time>
      </trkpt>
      <trkpt lat="48.38477" lon="2.39094">
        <ele>68.67</ele>
        <time>2024-04-15T15:56:33.733Z</time>
      </trkpt>
      <trkpt lat="48.38456" lon="2.39101">
        <ele>69.51</ele>
        <time>2024-04-15T15:56:35.628Z</time>
      </trkpt>
      <trkpt lat="48.38413" lon="2.39116">
        <ele>71.04</ele>
        <time>2024-04-15T15:56:37.532Z</time>
      </trkpt>
      <trkpt lat="48.38369" lon="2.39126">
        <ele>71.09</ele>
        <time>2024-04-15T15:56:39.445Z</time>
      </trkpt>
      <trkpt lat="48.38332" lon="2.39129">
        <ele>71.22</ele>
        <time>2024-04-15T15:56:41.365Z</time>
      </trkpt>
      <trkpt lat="48.3831" lon="2.39133">
        <ele>71.56</ele>
        <time>2024-04-15T15:56:43.290Z</time>
      </trkpt>
      <trkpt lat="48.38263" lon="2.39144">
        <ele>72.39</ele>
        <time>2024-04-15T15:56:45.224Z</time>
      </trkpt>
      <trkpt lat="48.38132" lon="2.39181">
        <ele>72.16</ele>
        <time>2024-04-15T15:56:47.185Z</time>
      </trkpt>
      <trkpt lat="48.38071" lon="2.39188">
        <ele>71.87</ele>
        <time>2024-04-15T15:56:49.158Z</time>
      </trkpt>
      <trkpt lat="48.38017" lon="2.39187">
        <ele>71</ele>
        <time>2024-04-15T15:56:51.142Z</time>
      </trkpt>
      <trkpt lat="48.37951" lon="2.39176">
        <ele>69.59</ele>
        <time>2024-04-15T15:56:53.139Z</time>
      </trkpt>
      <trkpt lat="48.37934" lon="2.39167">
        <ele>69.05</ele>
        <time>2024-04-15T15:56:55.140Z</time>
      </trkpt>
      <trkpt lat="48.37863" lon="2.39151">
        <ele>69.48</ele>
        <time>2024-04-15T15:56:57.155Z</time>
      </trkpt>
      <trkpt lat="48.37872" lon="2.39136">
        <ele>69.22</ele>
        <time>2024-04-15T15:56:59.173Z</time>
      </trkpt>
      <trkpt lat="48.37872" lon="2.39136">
        <ele>69.61</ele>
        <time>2024-04-15T15:57:01.191Z</time>
      </trkpt>
      <trkpt lat="48.37863" lon="2.39151">
        <ele>69.72</ele>
        <time>2024-04-15T15:57:03.212Z</time>
      </trkpt>
      <trkpt lat="48.37853" lon="2.39167">
        <ele>69.37</ele>
        <time>2024-04-15T15:57:05.236Z</time>
      </trkpt>
      <trkpt lat="48.37704" lon="2.39299">
        <ele>68.35</ele>
        <time>2024-04-15T15:57:07.294Z</time>
      </trkpt>
      <trkpt lat="48.37661" lon="2.39337">
        <ele>69.1</ele>
        <time>2024-04-15T15:57:09.362Z</time>
      </trkpt>
      <trkpt lat="48.37649" lon="2.39342">
        <ele>70.07</ele>
        <time>2024-04-15T15:57:11.433Z</time>
      </trkpt>
      <trkpt lat="48.37641" lon="2.39341">
        <ele>70.8</ele>
        <time>2024-04-15T15:57:13.505Z</time>
      </trkpt>
      <trkpt lat="48.3764" lon="2.39355">
        <ele>71.39</ele>
        <time>2024-04-15T15:57:15.579Z</time>
      </trkpt>
      <trkpt lat="48.37629" lon="2.39365">
        <ele>72.1</ele>
        <time>2024-04-15T15:57:17.656Z</time>
      </trkpt>
      <trkpt lat="48.37627" lon="2.39365">
        <ele>72.49</ele>
        <time>2024-04-15T15:57:19.733Z</time>
      </trkpt>
      <trkpt lat="48.37629" lon="2.39365">
        <ele>72.1</ele>
        <time>2024-04-15T15:57:21.811Z</time>
      </trkpt>
      <trkpt lat="48.3764" lon="2.39355">
        <ele>71.39</ele>
        <time>2024-04-15T15:57:23.891Z</time>
      </trkpt>
      <trkpt lat="48.37641" lon="2.39341">
        <ele>70.78</ele>
        <time>2024-04-15T15:57:25.973Z</time>
      </trkpt>
      <trkpt lat="48.37634" lon="2.39335">
        <ele>70.43</ele>
        <time>2024-04-15T15:57:28.056Z</time>
      </trkpt>
      <trkpt lat="48.37629" lon="2.39326">
        <ele>70.26</ele>
        <time>2024-04-15T15:57:30.141Z</time>
      </trkpt>
      <trkpt lat="48.37625" lon="2.39314">
        <ele>70.15</ele>
        <time>2024-04-15T15:57:32.228Z</time>
      </trkpt>
      <trkpt lat="48.37613" lon="2.39262">
        <ele>70.07</ele>
        <time>2024-04-15T15:57:34.322Z</time>
      </trkpt>
      <trkpt lat="48.37605" lon="2.39244">
        <ele>70.35</ele>
        <time>2024-04-15T15:57:36.419Z</time>
      </trkpt>
      <trkpt lat="48.37588" lon="2.3922">
        <ele>70.98</ele>
        <time>2024-04-15T15:57:38.521Z</time>
      </trkpt>
      <trkpt lat="48.37547" lon="2.39178">
        <ele>71.55</ele>
        <time>2024-04-15T15:57:40.633Z</time>
      </trkpt>
      <trkpt lat="48.37533" lon="2.39158">
        <ele>71.84</ele>
        <time>2024-04-15T15:57:42.748Z</time>
      </trkpt>
      <trkpt lat="48.37493" lon="2.39076">
        <ele>71.73</ele>
        <time>2024-04-15T15:57:44.877Z</time>
      </trkpt>
      <trkpt lat="48.37477" lon="2.39052">
        <ele>71.69</ele>
        <time>2024-04-15T15:57:47.011Z</time>
      </trkpt>
      <trkpt lat="48.3744" lon="2.39017">
        <ele>71.4</ele>
        <time>2024-04-15T15:57:49.153Z</time>
      </trkpt>
      <trkpt lat="48.37444" lon="2.39001">
        <ele>67.78</ele>
        <time>2024-04-15T15:57:51.298Z</time>
      </trkpt>
      <trkpt lat="48.37464" lon="2.38909">
        <ele>65.83</ele>
        <time>2024-04-15T15:57:53.455Z</time>
      </trkpt>
      <trkpt lat="48.37467" lon="2.38895">
        <ele>64.87</ele>
        <time>2024-04-15T15:57:55.614Z</time>
      </trkpt>
      <trkpt lat="48.37469" lon="2.38887">
        <ele>64.48</ele>
        <time>2024-04-15T15:57:57.775Z</time>
      </trkpt>
      <trkpt lat="48.37453" lon="2.38874">
        <ele>64.76</ele>
        <time>2024-04-15T15:57:59.939Z</time>
      </trkpt>
      <trkpt lat="48.37333" lon="2.38797">
        <ele>67.4</ele>
        <time>2024-04-15T15:58:02.129Z</time>
      </trkpt>
      <trkpt lat="48.3725" lon="2.38743">
        <ele>66.87</ele>
        <time>2024-04-15T15:58:04.337Z</time>
      </trkpt>
      <trkpt lat="48.3723" lon="2.38713">
        <ele>66.06</ele>
        <time>2024-04-15T15:58:06.551Z</time>
      </trkpt>
      <trkpt lat="48.37197" lon="2.38668">
        <ele>65.5</ele>
        <time>2024-04-15T15:58:08.774Z</time>
      </trkpt>
      <trkpt lat="48.37183" lon="2.38652">
        <ele>65.75</ele>
        <time>2024-04-15T15:58:11.001Z</time>
      </trkpt>
      <trkpt lat="48.37163" lon="2.38636">
        <ele>66.44</ele>
        <time>2024-04-15T15:58:13.232Z</time>
      </trkpt>
      <trkpt lat="48.37135" lon="2.38625">
        <ele>67.04</ele>
        <time>2024-04-15T15:58:15.469Z</time>
      </trkpt>
      <trkpt lat="48.37049" lon="2.38652">
        <ele>66.92</ele>
        <time>2024-04-15T15:58:17.724Z</time>
      </trkpt>
      <trkpt lat="48.37024" lon="2.38653">
        <ele>67.19</ele>
        <time>2024-04-15T15:58:19.983Z</time>
      </trkpt>
      <trkpt lat="48.37024" lon="2.38628">
        <ele>66.35</ele>
        <time>2024-04-15T15:58:22.246Z</time>
      </trkpt>
      <trkpt lat="48.37026" lon="2.38567">
        <ele>66.19</ele>
        <time>2024-04-15T15:58:24.517Z</time>
      </trkpt>
      <trkpt lat="48.37023" lon="2.38341">
        <ele>66.65</ele>
        <time>2024-04-15T15:58:26.818Z</time>
      </trkpt>
      <trkpt lat="48.37024" lon="2.38311">
        <ele>67.35</ele>
        <time>2024-04-15T15:58:29.123Z</time>
      </trkpt>
      <trkpt lat="48.37027" lon="2.38262">
        <ele>68.33</ele>
        <time>2024-04-15T15:58:31.435Z</time>
      </trkpt>
      <trkpt lat="48.37058" lon="2.38253">
        <ele>70.12</ele>
        <time>2024-04-15T15:58:33.753Z</time>
      </trkpt>
      <trkpt lat="48.37091" lon="2.38251">
        <ele>72.3</ele>
        <time>2024-04-15T15:58:36.078Z</time>
      </trkpt>
      <trkpt lat="48.37097" lon="2.3825">
        <ele>74.55</ele>
        <time>2024-04-15T15:58:38.404Z</time>
      </trkpt>
      <trkpt lat="48.37104" lon="2.38248">
        <ele>74.4</ele>
        <time>2024-04-15T15:58:40.731Z</time>
      </trkpt>
      <trkpt lat="48.37115" lon="2.38228">
        <ele>73.72</ele>
        <time>2024-04-15T15:58:43.062Z</time>
      </trkpt>
      <trkpt lat="48.37139" lon="2.38221">
        <ele>72.95</ele>
        <time>2024-04-15T15:58:45.398Z</time>
      </trkpt>
      <trkpt lat="48.37154" lon="2.38221">
        <ele>72.29</ele>
        <time>2024-04-15T15:58:47.737Z</time>
      </trkpt>
      <trkpt lat="48.37163" lon="2.38224">
        <ele>71.65</ele>
        <time>2024-04-15T15:58:50.077Z</time>
      </trkpt>
      <trkpt lat="48.37177" lon="2.38237">
        <ele>70.98</ele>
        <time>2024-04-15T15:58:52.421Z</time>
      </trkpt>
      <trkpt lat="48.37193" lon="2.38251">
        <ele>70.2</ele>
        <time>2024-04-15T15:58:54.768Z</time>
      </trkpt>
      <trkpt lat="48.37212" lon="2.38262">
        <ele>69.23</ele>
        <time>2024-04-15T15:58:57.119Z</time>
      </trkpt>
      <trkpt lat="48.3727" lon="2.38277">
        <ele>67.9</ele>
        <time>2024-04-15T15:58:59.482Z</time>
      </trkpt>
      <trkpt lat="48.37281" lon="2.38278">
        <ele>67.42</ele>
        <time>2024-04-15T15:59:01.848Z</time>
      </trkpt>
      <trkpt lat="48.37287" lon="2.38275">
        <ele>67.31</ele>
        <time>2024-04-15T15:59:04.215Z</time>
      </trkpt>
      <trkpt lat="48.3729" lon="2.38272">
        <ele>67.46</ele>
        <time>2024-04-15T15:59:06.582Z</time>
      </trkpt>
      <trkpt lat="48.37297" lon="2.38264">
        <ele>67.91</ele>
        <time>2024-04-15T15:59:08.951Z</time>
      </trkpt>
      <trkpt lat="48.3731" lon="2.38226">
        <ele>68.67</ele>
        <time>2024-04-15T15:59:11.326Z</time>
      </trkpt>
      <trkpt lat="48.37349" lon="2.38154">
        <ele>69.43</ele>
        <time>2024-04-15T15:59:13.713Z</time>
      </trkpt>
      <trkpt lat="48.37382" lon="2.38101">
        <ele>69.72</ele>
        <time>2024-04-15T15:59:16.110Z</time>
      </trkpt>
      <trkpt lat="48.37425" lon="2.38037">
        <ele>70.09</ele>
        <time>2024-04-15T15:59:18.519Z</time>
      </trkpt>
      <trkpt lat="48.37448" lon="2.37999">
        <ele>69.45</ele>
        <time>2024-04-15T15:59:20.935Z</time>
      </trkpt>
      <trkpt lat="48.3747" lon="2.37999">
        <ele>68.83</ele>
        <time>2024-04-15T15:59:23.355Z</time>
      </trkpt>
      <trkpt lat="48.3748" lon="2.3799">
        <ele>67.39</ele>
        <time>2024-04-15T15:59:25.778Z</time>
      </trkpt>
      <trkpt lat="48.3748" lon="2.3799">
        <ele>67.39</ele>
        <time>2024-04-15T15:59:28.201Z</time>
      </trkpt>
      <trkpt lat="48.3748" lon="2.3799">
        <ele>67.39</ele>
        <time>2024-04-15T15:59:30.624Z</time>
      </trkpt>
      <trkpt lat="48.37481" lon="2.37988">
        <ele>67.45</ele>
        <time>2024-04-15T15:59:33.047Z</time>
      </trkpt>
      <trkpt lat="48.37503" lon="2.37981">
        <ele>67.47</ele>
        <time>2024-04-15T15:59:35.475Z</time>
      </trkpt>
      <trkpt lat="48.37513" lon="2.37954">
        <ele>67.69</ele>
        <time>2024-04-15T15:59:37.907Z</time>
      </trkpt>
      <trkpt lat="48.37516" lon="2.37949">
        <ele>67.91</ele>
        <time>2024-04-15T15:59:40.340Z</time>
      </trkpt>
      <trkpt lat="48.37516" lon="2.37924">
        <ele>68.32</ele>
        <time>2024-04-15T15:59:42.776Z</time>
      </trkpt>
      <trkpt lat="48.37528" lon="2.37919">
        <ele>68.78</ele>
        <time>2024-04-15T15:59:45.214Z</time>
      </trkpt>
      <trkpt lat="48.37533" lon="2.37907">
        <ele>69.41</ele>
        <time>2024-04-15T15:59:47.654Z</time>
      </trkpt>
      <trkpt lat="48.37532" lon="2.3783">
        <ele>70.82</ele>
        <time>2024-04-15T15:59:50.105Z</time>
      </trkpt>
      <trkpt lat="48.37543" lon="2.37835">
        <ele>71.29</ele>
        <time>2024-04-15T15:59:52.558Z</time>
      </trkpt>
      <trkpt lat="48.37581" lon="2.37829">
        <ele>71.58</ele>
        <time>2024-04-15T15:59:55.018Z</time>
      </trkpt>
      <trkpt lat="48.37614" lon="2.37812">
        <ele>72.38</ele>
        <time>2024-04-15T15:59:57.485Z</time>
      </trkpt>
      <trkpt lat="48.37631" lon="2.37812">
        <ele>74.27</ele>
        <time>2024-04-15T15:59:59.956Z</time>
      </trkpt>
      <trkpt lat="48.37631" lon="2.37812">
        <ele>74.05</ele>
        <time>2024-04-15T16:00:02.427Z</time>
      </trkpt>
      <trkpt lat="48.37631" lon="2.37812">
        <ele>74.27</ele>
        <time>2024-04-15T16:00:04.898Z</time>
      </trkpt>
      <trkpt lat="48.37703" lon="2.37801">
        <ele>74.56</ele>
        <time>2024-04-15T16:00:07.383Z</time>
      </trkpt>
      <trkpt lat="48.37744" lon="2.37794">
        <ele>74.42</ele>
        <time>2024-04-15T16:00:09.877Z</time>
      </trkpt>
      <trkpt lat="48.3781" lon="2.37791">
        <ele>74.74</ele>
        <time>2024-04-15T16:00:12.384Z</time>
      </trkpt>
      <trkpt lat="48.37856" lon="2.37785">
        <ele>74.74</ele>
        <time>2024-04-15T16:00:14.900Z</time>
      </trkpt>
      <trkpt lat="48.37966" lon="2.37764">
        <ele>74.61</ele>
        <time>2024-04-15T16:00:17.438Z</time>
      </trkpt>
      <trkpt lat="48.37989" lon="2.37753">
        <ele>73.72</ele>
        <time>2024-04-15T16:00:19.981Z</time>
      </trkpt>
      <trkpt lat="48.38009" lon="2.37753">
        <ele>72.03</ele>
        <time>2024-04-15T16:00:22.528Z</time>
      </trkpt>
      <trkpt lat="48.38099" lon="2.37778">
        <ele>69.14</ele>
        <time>2024-04-15T16:00:25.093Z</time>
      </trkpt>
      <trkpt lat="48.3813" lon="2.37794">
        <ele>66.62</ele>
        <time>2024-04-15T16:00:27.665Z</time>
      </trkpt>
      <trkpt lat="48.38151" lon="2.37812">
        <ele>64.62</ele>
        <time>2024-04-15T16:00:30.242Z</time>
      </trkpt>
      <trkpt lat="48.38177" lon="2.37828">
        <ele>62.86</ele>
        <time>2024-04-15T16:00:32.824Z</time>
      </trkpt>
      <trkpt lat="48.38205" lon="2.37839">
        <ele>61.37</ele>
        <time>2024-04-15T16:00:35.412Z</time>
      </trkpt>
      <trkpt lat="48.38205" lon="2.37839">
        <ele>60.34</ele>
        <time>2024-04-15T16:00:38.000Z</time>
      </trkpt>
      <trkpt lat="48.38256" lon="2.37849">
        <ele>59.44</ele>
        <time>2024-04-15T16:00:40.599Z</time>
      </trkpt>
    </trkseg>
  </trk>
</gpx>